Time;durP1;ratioP1;P1;durP2;ratioP2;P2;SDS_P1;SDS_P2;PMS_P1;PMS_P2;Temp;Humidity;BMP_temperature;BMP_pressure;BME280_temperature;BME280_humidity;BME280_pressure;Samples;Min_cycle;Max_cycle;Signal;HPM_P1;HPM_P2
2022/06/09 00:01:31;;;;;;;15.35;9.75;;;;;;;;;;4464808;32;20232;-59
2022/06/09 00:04:00;;;;;;;17.50;9.88;;;;;;;;;;4455016;32;20840;-59
2022/06/09 00:06:33;;;;;;;10.23;8.93;;;;;;;;;;4449054;32;20250;-59
2022/06/09 00:09:02;;;;;;;9.75;8.63;;;;;;;;;;4448984;32;20271;-59
2022/06/09 00:11:28;;;;;;;15.63;8.65;;;;;;;;;;4448986;32;20295;-59
2022/06/09 00:13:54;;;;;;;14.32;8.68;;;;;;;;;;4448464;32;20231;-59
2022/06/09 00:16:19;;;;;;;18.33;9.10;;;;;;;;;;4448982;32;20228;-59
2022/06/09 00:18:45;;;;;;;14.80;9.75;;;;;;;;;;4454171;32;20758;-60
2022/06/09 00:21:11;;;;;;;16.48;9.52;;;;;;;;;;4464434;32;20271;-59
2022/06/09 00:23:37;;;;;;;18.15;11.12;;;;;;;;;;4464022;32;20664;-59
2022/06/09 00:26:04;;;;;;;19.92;9.60;;;;;;;;;;4457595;32;20653;-59
2022/06/09 00:28:30;;;;;;;15.05;10.80;;;;;;;;;;4448299;32;20232;-60
2022/06/09 00:30:56;;;;;;;13.73;10.75;;;;;;;;;;4448722;32;20219;-60
2022/06/09 00:33:21;;;;;;;12.15;9.43;;;;;;;;;;4447431;32;20381;-59
2022/06/09 00:35:47;;;;;;;13.40;10.77;;;;;;;;;;4448765;32;20741;-59
2022/06/09 00:38:12;;;;;;;13.68;9.93;;;;;;;;;;4450797;32;20772;-59
2022/06/09 00:40:38;;;;;;;14.68;10.63;;;;;;;;;;4450719;32;20216;-59
2022/06/09 00:43:05;;;;;;;16.45;11.07;;;;;;;;;;4448459;32;20638;-59
2022/06/09 00:45:42;;;;;;;10.63;9.52;;;;;;;;;;4448506;32;20216;-60
2022/06/09 00:48:16;;;;;;;13.10;9.77;;;;;;;;;;4448635;32;20284;-59
2022/06/09 00:50:42;;;;;;;19.85;11.40;;;;;;;;;;4448607;32;20309;-60
2022/06/09 00:53:17;;;;;;;14.82;11.48;;;;;;;;;;4448658;32;20638;-59
2022/06/09 00:55:43;;;;;;;19.08;11.27;;;;;;;;;;4454200;32;20282;-60
2022/06/09 00:58:14;;;;;;;14.13;7.47;;;;;;;;;;4463839;32;20506;-60
2022/06/09 01:00:46;;;;;;;13.62;4.20;;;;;;;;;;4464341;32;20208;-60
2022/06/09 01:03:12;;;;;;;6.55;4.07;;;;;;;;;;4463164;32;20315;-60
2022/06/09 01:05:40;;;;;;;7.50;4.40;;;;;;;;;;4448814;32;20258;-60
2022/06/09 01:08:06;;;;;;;11.00;3.80;;;;;;;;;;4448549;32;20232;-60
2022/06/09 01:10:31;;;;;;;7.47;3.70;;;;;;;;;;4448321;32;20216;-59
2022/06/09 01:12:59;;;;;;;7.47;2.70;;;;;;;;;;4448437;32;20284;-60
2022/06/09 01:15:48;;;;;;;4.90;3.25;;;;;;;;;;4447052;32;20240;-60
2022/06/09 01:18:29;;;;;;;9.48;3.03;;;;;;;;;;4448704;32;20200;-60
2022/06/09 01:21:07;;;;;;;3.25;2.47;;;;;;;;;;4448470;32;20201;-59
2022/06/09 01:23:55;;;;;;;4.82;2.83;;;;;;;;;;4449748;32;20304;-59
2022/06/09 01:26:54;;;;;;;4.68;2.47;;;;;;;;;;4462107;32;20274;-59
2022/06/09 01:29:38;;;;;;;9.98;3.33;;;;;;;;;;4464492;32;20219;-59
2022/06/09 01:32:23;;;;;;;6.85;3.47;;;;;;;;;;4466932;32;20251;-59
2022/06/09 01:35:04;;;;;;;8.82;3.40;;;;;;;;;;4455718;32;20660;-59
2022/06/09 01:37:39;;;;;;;4.45;3.30;;;;;;;;;;4460317;32;20232;-59
2022/06/09 01:40:07;;;;;;;8.77;3.25;;;;;;;;;;4456289;32;20230;-59
2022/06/09 01:42:34;;;;;;;11.20;2.72;;;;;;;;;;4451105;32;20648;-59
2022/06/09 01:45:09;;;;;;;16.35;3.35;;;;;;;;;;4450828;32;20654;-60
2022/06/09 01:47:59;;;;;;;8.60;3.08;;;;;;;;;;4451321;32;20674;-60
2022/06/09 01:50:34;;;;;;;11.95;4.18;;;;;;;;;;4450833;32;20216;-59
2022/06/09 01:53:04;;;;;;;17.92;4.43;;;;;;;;;;4451522;32;20246;-59
2022/06/09 01:55:34;;;;;;;4.60;4.20;;;;;;;;;;4454811;32;20216;-60
2022/06/09 01:58:02;;;;;;;4.85;4.35;;;;;;;;;;4466689;32;20216;-59
2022/06/09 02:00:28;;;;;;;10.30;4.90;;;;;;;;;;4466436;32;20294;-61
2022/06/09 02:03:02;;;;;;;6.72;5.20;;;;;;;;;;4466768;32;20713;-59
2022/06/09 02:05:31;;;;;;;13.27;6.25;;;;;;;;;;4453904;32;20226;-59
2022/06/09 02:08:02;;;;;;;9.20;6.30;;;;;;;;;;4451083;32;20407;-59
2022/06/09 02:10:27;;;;;;;9.77;6.43;;;;;;;;;;4450969;32;20278;-59
2022/06/09 02:12:53;;;;;;;8.77;6.40;;;;;;;;;;4451171;32;20294;-59
2022/06/09 02:15:29;;;;;;;10.25;6.57;;;;;;;;;;4450838;32;20208;-59
2022/06/09 02:17:54;;;;;;;12.05;6.93;;;;;;;;;;4451281;32;20246;-59
2022/06/09 02:20:23;;;;;;;7.18;5.82;;;;;;;;;;4450990;32;20247;-59
2022/06/09 02:22:48;;;;;;;10.43;5.95;;;;;;;;;;4451069;32;20299;-61
2022/06/09 02:25:15;;;;;;;8.73;7.40;;;;;;;;;;4449481;32;20296;-59
2022/06/09 02:27:41;;;;;;;11.02;7.00;;;;;;;;;;4450766;32;20267;-59
2022/06/09 02:30:07;;;;;;;7.15;6.45;;;;;;;;;;4451073;32;20351;-60
2022/06/09 02:32:34;;;;;;;12.05;6.55;;;;;;;;;;4451177;32;20228;-59
2022/06/09 02:35:00;;;;;;;7.90;6.97;;;;;;;;;;4457913;32;20217;-58
2022/06/09 02:37:25;;;;;;;8.88;6.90;;;;;;;;;;4466138;32;20644;-59
2022/06/09 02:39:51;;;;;;;8.25;7.03;;;;;;;;;;4463406;32;20290;-59
2022/06/09 02:42:16;;;;;;;7.72;6.45;;;;;;;;;;4465844;32;20666;-59
2022/06/09 02:44:41;;;;;;;12.63;6.80;;;;;;;;;;4460673;32;20360;-59
2022/06/09 02:47:07;;;;;;;10.23;6.50;;;;;;;;;;4450354;32;20236;-59
2022/06/09 02:49:33;;;;;;;9.10;7.37;;;;;;;;;;4448967;32;20279;-60
2022/06/09 02:51:58;;;;;;;8.75;6.53;;;;;;;;;;4455389;32;20232;-59
2022/06/09 02:54:24;;;;;;;12.30;7.55;;;;;;;;;;4462999;32;20305;-60
2022/06/09 02:56:49;;;;;;;10.25;6.25;;;;;;;;;;4462496;32;20258;-60
2022/06/09 02:59:15;;;;;;;13.00;6.43;;;;;;;;;;4463745;32;20290;-59
2022/06/09 03:01:40;;;;;;;15.68;6.28;;;;;;;;;;4449891;32;20228;-59
2022/06/09 03:04:07;;;;;;;8.25;5.43;;;;;;;;;;4448485;32;20311;-59
2022/06/09 03:06:33;;;;;;;7.45;5.05;;;;;;;;;;4450083;32;20224;-59
2022/06/09 03:08:58;;;;;;;9.65;6.32;;;;;;;;;;4450028;32;20574;-59
2022/06/09 03:11:25;;;;;;;10.95;6.10;;;;;;;;;;4464091;32;20220;-59
2022/06/09 03:13:51;;;;;;;9.88;6.18;;;;;;;;;;4465371;32;20314;-59
2022/06/09 03:16:17;;;;;;;11.80;6.35;;;;;;;;;;4449489;32;20232;-58
2022/06/09 03:18:43;;;;;;;7.62;5.80;;;;;;;;;;4450188;32;20351;-59
2022/06/09 03:21:09;;;;;;;8.45;6.18;;;;;;;;;;4449660;32;20753;-59
2022/06/09 03:23:35;;;;;;;5.93;4.95;;;;;;;;;;4450151;32;20659;-58
2022/06/09 03:26:00;;;;;;;6.97;4.35;;;;;;;;;;4449247;32;20213;-58
2022/06/09 03:28:26;;;;;;;7.82;5.25;;;;;;;;;;4450034;32;20321;-59
2022/06/09 03:30:51;;;;;;;8.07;5.50;;;;;;;;;;4449749;32;20305;-59
2022/06/09 03:33:17;;;;;;;14.35;5.75;;;;;;;;;;4449666;32;20302;-59
2022/06/09 03:35:42;;;;;;;7.18;5.62;;;;;;;;;;4449777;32;20224;-59
2022/06/09 03:38:08;;;;;;;6.70;3.87;;;;;;;;;;4449761;32;20275;-59
2022/06/09 03:40:34;;;;;;;11.25;4.03;;;;;;;;;;4456923;32;20564;-59
2022/06/09 03:43:02;;;;;;;7.03;4.12;;;;;;;;;;4465284;32;20262;-58
2022/06/09 03:45:28;;;;;;;11.63;4.95;;;;;;;;;;4455519;32;20260;-59
2022/06/09 03:47:54;;;;;;;7.72;5.05;;;;;;;;;;4449357;32;20223;-58
2022/06/09 03:50:24;;;;;;;10.45;4.87;;;;;;;;;;4449229;32;20276;-59
2022/06/09 03:52:50;;;;;;;10.55;5.43;;;;;;;;;;4448901;32;20298;-60
2022/06/09 03:55:16;;;;;;;16.12;5.62;;;;;;;;;;4451798;32;20772;-59
2022/06/09 03:57:42;;;;;;;9.60;4.68;;;;;;;;;;4464491;32;20278;-59
2022/06/09 04:00:12;;;;;;;23.12;5.05;;;;;;;;;;4464374;32;20314;-60
2022/06/09 04:02:38;;;;;;;10.50;5.12;;;;;;;;;;4464920;32;20549;-59
2022/06/09 04:05:03;;;;;;;10.52;6.30;;;;;;;;;;4459882;32;20280;-59
2022/06/09 04:07:29;;;;;;;9.48;5.12;;;;;;;;;;4449708;32;20236;-59
2022/06/09 04:09:54;;;;;;;7.40;4.78;;;;;;;;;;4461554;32;20339;-59
2022/06/09 04:12:20;;;;;;;10.55;5.07;;;;;;;;;;4448910;32;20248;-59
2022/06/09 04:14:47;;;;;;;18.08;5.40;;;;;;;;;;4448765;32;20267;-59
2022/06/09 04:17:13;;;;;;;14.98;5.62;;;;;;;;;;4449135;32;20675;-59
2022/06/09 04:19:39;;;;;;;10.55;5.70;;;;;;;;;;4449213;32;20297;-59
2022/06/09 04:22:05;;;;;;;10.30;5.78;;;;;;;;;;4448692;32;20236;-59
2022/06/09 04:24:31;;;;;;;8.20;5.07;;;;;;;;;;4447749;32;20370;-59
2022/06/09 04:26:57;;;;;;;10.40;5.40;;;;;;;;;;4448941;32;20251;-59
2022/06/09 04:29:23;;;;;;;10.55;5.90;;;;;;;;;;4448966;32;20610;-60
2022/06/09 04:31:48;;;;;;;8.48;5.60;;;;;;;;;;4448480;32;20312;-60
2022/06/09 04:34:14;;;;;;;10.00;6.05;;;;;;;;;;4448785;32;20271;-58
2022/06/09 04:36:41;;;;;;;14.32;5.95;;;;;;;;;;4448548;32;20240;-59
2022/06/09 04:39:07;;;;;;;7.62;5.43;;;;;;;;;;4448534;32;20743;-59
2022/06/09 04:41:34;;;;;;;11.40;5.95;;;;;;;;;;4460134;32;20236;-59
2022/06/09 04:44:00;;;;;;;18.58;5.85;;;;;;;;;;4463910;32;20324;-59
2022/06/09 04:46:26;;;;;;;14.60;4.82;;;;;;;;;;4447762;32;20241;-59
2022/06/09 04:48:52;;;;;;;13.88;6.53;;;;;;;;;;4448334;32;20322;-59
2022/06/09 04:51:19;;;;;;;12.80;6.25;;;;;;;;;;4448054;32;20228;-59
2022/06/09 04:53:46;;;;;;;10.35;6.57;;;;;;;;;;4448512;32;20204;-59
2022/06/09 04:56:14;;;;;;;8.35;5.93;;;;;;;;;;4448056;32;20251;-60
2022/06/09 04:58:40;;;;;;;9.50;5.50;;;;;;;;;;4447080;32;20217;-60
2022/06/09 05:01:14;;;;;;;10.55;6.15;;;;;;;;;;4455113;32;20208;-59
2022/06/09 05:03:40;;;;;;;8.50;5.45;;;;;;;;;;4463750;32;20301;-60
2022/06/09 05:06:05;;;;;;;14.23;6.22;;;;;;;;;;4457170;32;20224;-61
2022/06/09 05:08:31;;;;;;;10.43;6.60;;;;;;;;;;4453810;32;20292;-60
2022/06/09 05:10:56;;;;;;;7.25;5.93;;;;;;;;;;4457883;32;20212;-59
2022/06/09 05:13:22;;;;;;;11.68;6.65;;;;;;;;;;4448658;32;20689;-58
2022/06/09 05:15:53;;;;;;;9.18;6.03;;;;;;;;;;4452172;32;20211;-59
2022/06/09 05:18:21;;;;;;;9.63;5.05;;;;;;;;;;4463301;32;20319;-59
2022/06/09 05:20:48;;;;;;;15.82;5.65;;;;;;;;;;4459147;32;20228;-59
2022/06/09 05:23:14;;;;;;;13.68;7.78;;;;;;;;;;4447680;32;20251;-59
2022/06/09 05:25:39;;;;;;;12.05;6.15;;;;;;;;;;4446796;32;20200;-59
2022/06/09 05:28:05;;;;;;;11.90;5.80;;;;;;;;;;4447518;32;20250;-59
2022/06/09 05:30:30;;;;;;;19.60;5.22;;;;;;;;;;4447691;32;20205;-58
2022/06/09 05:32:56;;;;;;;11.82;5.93;;;;;;;;;;4448617;32;20667;-60
2022/06/09 05:35:22;;;;;;;8.75;6.55;;;;;;;;;;4447652;32;20317;-59
2022/06/09 05:46:05;;;;;;;7.72;5.62;;;;;;;;;;4448088;32;20339;-59
2022/06/09 05:48:30;;;;;;;9.13;6.37;;;;;;;;;;4447127;32;20228;-60
2022/06/09 05:50:56;;;;;;;7.82;7.00;;;;;;;;;;4451162;32;20663;-61
2022/06/09 05:53:22;;;;;;;10.93;7.47;;;;;;;;;;4449836;32;20338;-59
2022/06/09 05:55:47;;;;;;;11.82;8.27;;;;;;;;;;4454306;32;20207;-59
2022/06/09 05:58:13;;;;;;;13.23;7.00;;;;;;;;;;4463986;32;20306;-58
2022/06/09 06:00:41;;;;;;;25.25;8.13;;;;;;;;;;4455350;32;20281;-58
2022/06/09 06:03:08;;;;;;;21.25;7.37;;;;;;;;;;4448478;32;20256;-59
2022/06/09 06:08:18;;;;;;;9.38;8.10;;;;;;;;;;4452179;32;20249;-59
2022/06/09 06:10:43;;;;;;;16.30;8.80;;;;;;;;;;4462794;32;20220;-59
2022/06/09 06:13:09;;;;;;;17.42;8.10;;;;;;;;;;4462702;32;20731;-58
2022/06/09 06:15:34;;;;;;;15.32;8.00;;;;;;;;;;4464516;32;20226;-59
2022/06/09 06:18:03;;;;;;;10.65;8.75;;;;;;;;;;4462358;32;20274;-58
2022/06/09 06:20:30;;;;;;;10.35;8.80;;;;;;;;;;4450645;32;20701;-59
2022/06/09 06:22:56;;;;;;;13.05;8.65;;;;;;;;;;4450694;32;20271;-59
2022/06/09 06:25:23;;;;;;;12.57;8.75;;;;;;;;;;4450495;32;20710;-59
2022/06/09 06:27:49;;;;;;;12.60;9.00;;;;;;;;;;4451037;32;20766;-60
2022/06/09 06:30:14;;;;;;;12.48;8.88;;;;;;;;;;4451760;32;20288;-59
2022/06/09 06:32:40;;;;;;;15.15;7.90;;;;;;;;;;4451563;32;20331;-59
2022/06/09 06:35:06;;;;;;;13.75;8.70;;;;;;;;;;4449332;32;20307;-59
2022/06/09 06:37:32;;;;;;;16.37;10.00;;;;;;;;;;4451047;32;20326;-60
2022/06/09 06:39:58;;;;;;;18.52;9.98;;;;;;;;;;4450239;32;20303;-60
2022/06/09 06:42:23;;;;;;;14.77;9.02;;;;;;;;;;4450030;32;20262;-60
2022/06/09 06:44:49;;;;;;;14.68;10.45;;;;;;;;;;4454839;26;20256;-86
2022/06/09 06:47:15;;;;;;;12.18;8.95;;;;;;;;;;4392075;32;20614;-84
2022/06/09 06:49:41;;;;;;;16.65;9.77;;;;;;;;;;4391943;32;20350;-82
2022/06/09 06:52:06;;;;;;;12.37;10.43;;;;;;;;;;4391219;32;20209;-83
2022/06/09 06:54:32;;;;;;;10.98;7.90;;;;;;;;;;4391588;32;20247;-82
2022/06/09 06:56:58;;;;;;;16.80;9.05;;;;;;;;;;4390811;32;20224;-84
2022/06/09 06:59:24;;;;;;;13.25;8.40;;;;;;;;;;4391878;32;20240;-84
2022/06/09 07:01:50;;;;;;;14.98;9.18;;;;;;;;;;4391319;32;20190;-79
2022/06/09 07:04:16;;;;;;;14.13;9.30;;;;;;;;;;4391547;32;20230;-84
2022/06/09 07:06:42;;;;;;;12.82;9.60;;;;;;;;;;4390194;32;20642;-79
2022/06/09 07:09:08;;;;;;;14.48;9.05;;;;;;;;;;4402317;32;20761;-80
2022/06/09 07:11:34;;;;;;;20.08;9.07;;;;;;;;;;4391067;32;20209;-83
2022/06/09 07:14:00;;;;;;;11.05;8.98;;;;;;;;;;4391273;32;20189;-83
2022/06/09 07:16:26;;;;;;;12.45;9.25;;;;;;;;;;4390801;32;20594;-84
2022/06/09 07:18:52;;;;;;;20.58;9.20;;;;;;;;;;4391036;32;20273;-85
2022/06/09 07:21:17;;;;;;;13.88;9.65;;;;;;;;;;4390295;32;20202;-84
2022/06/09 07:23:45;;;;;;;14.25;9.35;;;;;;;;;;4391292;32;20194;-83
2022/06/09 07:26:11;;;;;;;13.45;9.40;;;;;;;;;;4390782;32;20685;-80
2022/06/09 07:28:36;;;;;;;13.18;9.45;;;;;;;;;;4390331;32;20221;-84
2022/06/09 07:31:04;;;;;;;13.15;9.05;;;;;;;;;;4390549;32;20244;-83
2022/06/09 07:33:33;;;;;;;13.48;9.13;;;;;;;;;;4390671;32;20637;-84
2022/06/09 07:36:00;;;;;;;20.83;10.13;;;;;;;;;;4390547;32;20569;-85
2022/06/09 07:38:26;;;;;;;11.05;9.40;;;;;;;;;;4390755;32;20527;-83
2022/06/09 07:40:52;;;;;;;17.20;9.90;;;;;;;;;;4390766;32;20659;-80
2022/06/09 07:43:19;;;;;;;19.80;11.25;;;;;;;;;;4390589;32;20646;-79
2022/06/09 07:45:46;;;;;;;11.77;9.10;;;;;;;;;;4390240;32;20647;-85
2022/06/09 07:48:12;;;;;;;12.73;10.30;;;;;;;;;;4390747;32;20689;-84
2022/06/09 07:50:38;;;;;;;17.62;10.07;;;;;;;;;;4390874;32;20706;-85
2022/06/09 07:53:05;;;;;;;26.17;9.63;;;;;;;;;;4390675;32;20247;-85
2022/06/09 07:55:32;;;;;;;13.60;10.45;;;;;;;;;;4391804;32;20560;-84
2022/06/09 07:57:58;;;;;;;14.30;8.88;;;;;;;;;;4390711;32;20642;-80
2022/06/09 08:00:25;;;;;;;12.02;9.68;;;;;;;;;;4390682;32;20217;-85
2022/06/09 08:02:52;;;;;;;14.65;9.48;;;;;;;;;;4391410;32;20741;-84
2022/06/09 08:05:20;;;;;;;15.35;10.10;;;;;;;;;;4390847;32;20643;-84
2022/06/09 08:07:46;;;;;;;20.62;10.77;;;;;;;;;;4390425;32;20704;-83
2022/06/09 08:10:20;;;;;;;11.40;9.35;;;;;;;;;;4390611;32;20578;-84
2022/06/09 08:12:50;;;;;;;12.90;8.38;;;;;;;;;;4389678;32;20669;-84
2022/06/09 08:15:17;;;;;;;12.13;9.40;;;;;;;;;;4391046;32;20226;-85
2022/06/09 08:17:44;;;;;;;13.25;8.93;;;;;;;;;;4389986;32;20578;-85
2022/06/09 08:20:12;;;;;;;19.42;9.57;;;;;;;;;;4391117;32;20214;-84
2022/06/09 08:22:43;;;;;;;19.65;9.45;;;;;;;;;;4391176;32;20567;-84
2022/06/09 08:25:12;;;;;;;15.98;9.25;;;;;;;;;;4392052;32;20648;-84
2022/06/09 08:27:38;;;;;;;16.40;9.35;;;;;;;;;;4393110;32;20621;-82
2022/06/09 08:30:07;;;;;;;12.20;8.93;;;;;;;;;;4404378;32;20182;-83
2022/06/09 08:32:33;;;;;;;13.23;8.73;;;;;;;;;;4403762;32;20194;-83
2022/06/09 08:34:59;;;;;;;10.45;8.90;;;;;;;;;;4404230;32;20245;-84
2022/06/09 08:37:25;;;;;;;12.27;8.57;;;;;;;;;;4403718;32;20221;-84
2022/06/09 08:39:50;;;;;;;12.27;8.05;;;;;;;;;;4391826;32;20248;-83
2022/06/09 08:42:44;;;;;;;10.73;8.35;;;;;;;;;;4389157;32;20244;-84
2022/06/09 08:45:13;;;;;;;10.23;8.13;;;;;;;;;;4389998;32;20730;-84
2022/06/09 08:47:53;;;;;;;11.77;9.05;;;;;;;;;;4390248;32;20686;-83
2022/06/09 08:50:47;;;;;;;13.30;9.70;;;;;;;;;;4389905;32;20667;-84
2022/06/09 08:53:24;;;;;;;14.27;8.57;;;;;;;;;;4389962;32;20650;-84
2022/06/09 08:55:57;;;;;;;11.98;7.85;;;;;;;;;;4390034;32;20653;-80
2022/06/09 08:58:30;;;;;;;14.13;7.78;;;;;;;;;;4389732;32;20557;-85
2022/06/09 09:01:17;;;;;;;10.75;8.02;;;;;;;;;;4389782;32;20627;-80
2022/06/09 09:03:51;;;;;;;8.65;7.15;;;;;;;;;;4389546;32;20638;-83
2022/06/09 09:06:39;;;;;;;9.13;6.53;;;;;;;;;;4388697;32;20612;-83
2022/06/09 09:09:27;;;;;;;7.78;5.05;;;;;;;;;;4390973;32;20605;-84
2022/06/09 09:12:12;;;;;;;18.48;7.12;;;;;;;;;;4390485;32;20612;-82
2022/06/09 09:14:58;;;;;;;10.73;7.40;;;;;;;;;;4389549;32;20584;-84
2022/06/09 09:17:45;;;;;;;12.52;9.18;;;;;;;;;;4389842;32;20589;-87
2022/06/09 09:20:26;;;;;;;9.05;7.20;;;;;;;;;;4389712;32;20556;-85
2022/06/09 09:23:01;;;;;;;15.77;5.75;;;;;;;;;;4389291;32;20814;-84
2022/06/09 09:25:44;;;;;;;7.75;4.57;;;;;;;;;;4388635;32;20653;-84
2022/06/09 09:28:16;;;;;;;13.05;6.82;;;;;;;;;;4387698;32;20602;-84
2022/06/09 09:31:03;;;;;;;10.82;7.10;;;;;;;;;;4389826;32;20611;-83
2022/06/09 09:33:30;;;;;;;12.80;5.90;;;;;;;;;;4388388;32;20631;-83
2022/06/09 09:36:02;;;;;;;8.18;5.43;;;;;;;;;;4389464;32;20613;-85
2022/06/09 09:38:39;;;;;;;9.23;5.25;;;;;;;;;;4388295;32;20685;-84
2022/06/09 09:41:05;;;;;;;9.27;4.82;;;;;;;;;;4388994;32;20599;-83
2022/06/09 09:43:41;;;;;;;10.30;5.60;;;;;;;;;;4388727;32;20592;-82
2022/06/09 09:46:23;;;;;;;9.20;3.97;;;;;;;;;;4387439;32;20550;-83
2022/06/09 09:48:49;;;;;;;8.55;4.10;;;;;;;;;;4388497;32;20615;-83
2022/06/09 09:51:15;;;;;;;7.60;4.72;;;;;;;;;;4390573;32;20317;-83
2022/06/09 09:53:54;;;;;;;5.00;3.28;;;;;;;;;;4391946;32;20190;-82
2022/06/09 09:56:20;;;;;;;8.00;4.90;;;;;;;;;;4391789;32;20657;-83
2022/06/09 09:58:48;;;;;;;5.37;3.58;;;;;;;;;;4390515;32;20206;-84
2022/06/09 10:01:14;;;;;;;4.25;3.53;;;;;;;;;;4391895;32;20658;-83
2022/06/09 10:09:34;;;;;;;10.27;3.45;;;;;;;;;;4392150;32;20603;-84
2022/06/09 10:12:09;;;;;;;5.95;3.47;;;;;;;;;;4392162;32;20533;-84
2022/06/09 10:14:53;;;;;;;2.35;1.90;;;;;;;;;;4392171;32;20553;-83
2022/06/09 10:17:36;;;;;;;4.85;2.80;;;;;;;;;;4392113;32;20630;-82
2022/06/09 10:20:14;;;;;;;8.57;3.08;;;;;;;;;;4392465;32;20706;-84
2022/06/09 10:22:43;;;;;;;8.15;3.50;;;;;;;;;;4392009;32;20659;-85
2022/06/09 10:25:42;;;;;;;4.22;2.87;;;;;;;;;;4390164;32;20676;-84
2022/06/09 10:28:13;;;;;;;12.27;3.00;;;;;;;;;;4390589;32;20655;-84
2022/06/09 10:30:46;;;;;;;5.03;2.65;;;;;;;;;;4391740;32;20536;-84
2022/06/09 10:33:18;;;;;;;16.20;3.35;;;;;;;;;;4391791;32;20752;-84
2022/06/09 10:35:54;;;;;;;3.85;2.72;;;;;;;;;;4391501;32;20533;-83
2022/06/09 10:38:33;;;;;;;9.05;3.15;;;;;;;;;;4390489;32;20591;-80
2022/06/09 10:41:01;;;;;;;11.90;3.58;;;;;;;;;;4392043;32;20634;-80
2022/06/09 10:43:30;;;;;;;8.55;4.35;;;;;;;;;;4390208;32;20517;-83
2022/06/09 10:46:22;;;;;;;15.93;4.35;;;;;;;;;;4391551;32;20237;-80
2022/06/09 10:55:15;;;;;;;11.43;4.18;;;;;;;;;;4392078;32;20312;-85
2022/06/09 10:58:08;;;;;;;9.18;2.80;;;;;;;;;;4391087;32;20749;-80
2022/06/09 11:00:41;;;;;;;6.65;3.05;;;;;;;;;;4391528;32;20581;-83
2022/06/09 11:03:23;;;;;;;5.90;2.97;;;;;;;;;;4390937;32;20659;-84
2022/06/09 11:06:24;;;;;;;5.72;2.40;;;;;;;;;;4391257;32;20587;-85
2022/06/09 11:08:52;;;;;;;3.45;2.20;;;;;;;;;;4381635;32;20610;-84
2022/06/09 11:11:24;;;;;;;5.65;2.50;;;;;;;;;;4391355;32;20649;-84
2022/06/09 11:14:03;;;;;;;6.47;2.70;;;;;;;;;;4391811;32;20568;-84
2022/06/09 11:16:58;;;;;;;4.68;2.12;;;;;;;;;;4391397;32;20327;-83
2022/06/09 11:19:39;;;;;;;4.80;2.05;;;;;;;;;;4392265;32;20644;-83
2022/06/09 11:22:20;;;;;;;6.75;1.98;;;;;;;;;;4391280;32;20741;-81
2022/06/09 11:25:25;;;;;;;3.40;1.73;;;;;;;;;;4391328;32;20653;-84
2022/06/09 11:28:08;;;;;;;4.47;2.10;;;;;;;;;;4391305;32;20531;-79
2022/06/09 11:30:55;;;;;;;6.55;2.58;;;;;;;;;;4390462;32;20665;-85
2022/06/09 11:33:39;;;;;;;4.00;1.83;;;;;;;;;;4391545;32;20602;-80
2022/06/09 11:36:42;;;;;;;7.55;2.00;;;;;;;;;;4391231;32;20519;-84
2022/06/09 11:39:36;;;;;;;7.90;1.73;;;;;;;;;;4391149;32;20635;-84
2022/06/09 11:42:20;;;;;;;7.10;1.85;;;;;;;;;;4391046;32;20669;-84
2022/06/09 11:44:48;;;;;;;4.20;1.83;;;;;;;;;;4389713;32;20552;-84
2022/06/09 11:47:21;;;;;;;2.78;1.65;;;;;;;;;;4390752;32;20566;-84
2022/06/09 11:49:57;;;;;;;2.12;1.87;;;;;;;;;;4390845;32;20604;-83
2022/06/09 11:52:29;;;;;;;4.32;1.65;;;;;;;;;;4390691;32;20670;-83
2022/06/09 11:54:56;;;;;;;6.60;2.20;;;;;;;;;;4391563;32;20638;-79
2022/06/09 11:57:34;;;;;;;9.02;1.83;;;;;;;;;;4390927;32;20810;-83
2022/06/09 12:00:22;;;;;;;5.68;2.17;;;;;;;;;;4390896;32;20673;-83
2022/06/09 12:03:23;;;;;;;8.35;2.28;;;;;;;;;;4390635;32;20638;-84
2022/06/09 12:06:12;;;;;;;3.30;1.75;;;;;;;;;;4390939;32;20511;-83
2022/06/09 12:08:46;;;;;;;5.70;2.22;;;;;;;;;;4390943;32;20547;-84
2022/06/09 12:11:23;;;;;;;2.40;1.62;;;;;;;;;;4389439;32;20559;-80
2022/06/09 12:14:16;;;;;;;4.85;1.62;;;;;;;;;;4389536;32;20592;-80
2022/06/09 12:17:11;;;;;;;7.82;1.85;;;;;;;;;;4390695;32;20809;-84
2022/06/09 12:19:51;;;;;;;4.12;2.05;;;;;;;;;;4389259;32;20643;-83
2022/06/09 12:22:44;;;;;;;3.00;1.83;;;;;;;;;;4390555;32;20620;-84
2022/06/09 12:25:16;;;;;;;5.68;1.85;;;;;;;;;;4390404;32;20729;-84
2022/06/09 12:27:48;;;;;;;4.43;2.35;;;;;;;;;;4390234;32;20284;-83
2022/06/09 12:30:37;;;;;;;5.37;2.17;;;;;;;;;;4390102;32;20695;-83
2022/06/09 12:33:16;;;;;;;3.08;1.98;;;;;;;;;;4389204;32;20637;-84
2022/06/09 12:35:50;;;;;;;3.87;2.05;;;;;;;;;;4390137;32;20649;-84
2022/06/09 12:38:33;;;;;;;6.25;1.90;;;;;;;;;;4390102;32;20607;-83
2022/06/09 12:41:11;;;;;;;3.50;1.60;;;;;;;;;;4389239;32;20719;-80
2022/06/09 12:43:44;;;;;;;3.15;1.87;;;;;;;;;;4389030;32;20647;-80
2022/06/09 12:46:23;;;;;;;1.98;1.67;;;;;;;;;;4389982;32;20599;-84
2022/06/09 12:48:51;;;;;;;3.08;1.95;;;;;;;;;;4390114;32;20189;-84
2022/06/09 12:51:31;;;;;;;1.85;1.52;;;;;;;;;;4390234;32;20575;-83
2022/06/09 12:54:04;;;;;;;3.30;1.73;;;;;;;;;;4389207;32;20777;-83
2022/06/09 12:56:44;;;;;;;3.10;2.00;;;;;;;;;;4390900;32;20267;-81
2022/06/09 12:59:38;;;;;;;5.87;2.28;;;;;;;;;;4390467;32;20686;-85
2022/06/09 13:02:19;;;;;;;3.55;2.20;;;;;;;;;;4390529;32;20727;-82
2022/06/09 13:05:16;;;;;;;2.37;1.67;;;;;;;;;;4392023;32;20625;-84
2022/06/09 13:07:56;;;;;;;4.60;1.87;;;;;;;;;;4400667;32;20314;-84
2022/06/09 13:10:30;;;;;;;4.70;1.70;;;;;;;;;;4404395;32;20264;-84
2022/06/09 13:13:03;;;;;;;5.50;2.00;;;;;;;;;;4403786;32;20274;-84
2022/06/09 13:15:40;;;;;;;5.62;2.17;;;;;;;;;;4401793;32;20191;-78
2022/06/09 13:18:12;;;;;;;4.50;2.35;;;;;;;;;;4389772;32;20532;-83
2022/06/09 13:20:51;;;;;;;10.65;1.73;;;;;;;;;;4390018;32;20519;-82
2022/06/09 13:23:18;;;;;;;8.93;2.10;;;;;;;;;;4389957;32;20652;-84
2022/06/09 13:25:46;;;;;;;4.22;2.05;;;;;;;;;;4391289;32;20625;-79
2022/06/09 13:28:47;;;;;;;4.10;2.58;;;;;;;;;;4392559;32;20742;-83
2022/06/09 13:31:24;;;;;;;3.70;2.17;;;;;;;;;;4391586;32;20680;-84
2022/06/09 13:33:59;;;;;;;3.65;2.37;;;;;;;;;;4393130;32;20736;-84
2022/06/09 13:36:27;;;;;;;17.35;2.55;;;;;;;;;;4392759;32;20626;-84
2022/06/09 13:38:54;;;;;;;3.83;1.95;;;;;;;;;;4392671;32;20676;-84
2022/06/09 13:41:25;;;;;;;2.17;1.50;;;;;;;;;;4392406;32;20571;-84
2022/06/09 13:43:55;;;;;;;6.05;2.30;;;;;;;;;;4392824;32;20566;-84
2022/06/09 13:46:26;;;;;;;6.62;1.83;;;;;;;;;;4392550;32;20625;-84
2022/06/09 13:49:03;;;;;;;6.28;2.05;;;;;;;;;;4393402;32;20587;-84
2022/06/09 13:51:50;;;;;;;10.57;2.53;;;;;;;;;;4400575;32;20240;-81
2022/06/09 13:54:29;;;;;;;1.90;1.20;;;;;;;;;;4399065;32;20222;-82
2022/06/09 13:56:55;;;;;;;2.85;1.75;;;;;;;;;;4403750;32;20642;-85
2022/06/09 13:59:22;;;;;;;3.15;2.10;;;;;;;;;;4399532;32;20190;-84
2022/06/09 14:01:49;;;;;;;4.78;1.67;;;;;;;;;;4398797;32;20214;-82
2022/06/09 14:04:24;;;;;;;5.68;2.20;;;;;;;;;;4393124;32;20614;-84
2022/06/09 14:06:50;;;;;;;5.65;1.75;;;;;;;;;;4392660;32;20658;-84
2022/06/09 14:09:17;;;;;;;4.72;2.10;;;;;;;;;;4392267;32;20543;-79
2022/06/09 14:11:43;;;;;;;12.55;2.30;;;;;;;;;;4392724;32;20693;-83
2022/06/09 14:14:09;;;;;;;9.50;2.25;;;;;;;;;;4391273;32;20275;-83
2022/06/09 14:16:38;;;;;;;3.28;1.60;;;;;;;;;;4392110;32;20342;-83
2022/06/09 14:19:08;;;;;;;4.12;1.62;;;;;;;;;;4392328;32;20551;-86
2022/06/09 14:21:34;;;;;;;7.03;2.28;;;;;;;;;;4390881;32;20555;-86
2022/06/09 14:24:05;;;;;;;3.65;1.67;;;;;;;;;;4392147;32;20661;-87
2022/06/09 14:26:36;;;;;;;6.03;1.62;;;;;;;;;;4390957;32;20533;-87
2022/06/09 14:29:05;;;;;;;4.70;1.83;;;;;;;;;;4391948;32;20736;-85
2022/06/09 14:31:31;;;;;;;3.03;1.73;;;;;;;;;;4392067;32;20523;-86
2022/06/09 14:33:58;;;;;;;7.47;1.42;;;;;;;;;;4391321;32;20520;-87
2022/06/09 14:36:27;;;;;;;3.83;1.90;;;;;;;;;;4391624;32;20628;-87
2022/06/09 14:38:55;;;;;;;1.85;1.40;;;;;;;;;;4392377;32;20569;-82
2022/06/09 14:41:22;;;;;;;7.72;2.08;;;;;;;;;;4392003;32;20651;-87
2022/06/09 14:43:48;;;;;;;2.00;1.50;;;;;;;;;;4391098;32;20622;-86
2022/06/09 14:46:30;;;;;;;5.35;1.40;;;;;;;;;;4390959;32;20579;-87
2022/06/09 14:48:57;;;;;;;2.55;1.33;;;;;;;;;;4391673;32;20537;-87
2022/06/09 14:51:23;;;;;;;4.25;1.10;;;;;;;;;;4390334;32;20254;-84
2022/06/09 14:53:50;;;;;;;8.00;1.15;;;;;;;;;;4391485;32;20616;-87
2022/06/09 14:56:18;;;;;;;5.45;1.37;;;;;;;;;;4390645;32;20651;-87
2022/06/09 14:58:45;;;;;;;1.98;1.20;;;;;;;;;;4390197;32;20554;-86
2022/06/09 15:01:15;;;;;;;2.65;1.00;;;;;;;;;;4391920;32;20639;-85
2022/06/09 15:03:42;;;;;;;2.65;1.00;;;;;;;;;;4391658;32;20634;-86
2022/06/09 15:06:13;;;;;;;2.47;1.25;;;;;;;;;;4391222;32;20778;-87
2022/06/09 15:08:40;;;;;;;1.92;1.08;;;;;;;;;;4390198;32;20651;-85
2022/06/09 15:11:06;;;;;;;1.55;1.00;;;;;;;;;;4391172;32;20516;-86
2022/06/09 15:13:32;;;;;;;15.00;1.50;;;;;;;;;;4391087;32;20634;-87
2022/06/09 15:16:01;;;;;;;2.03;1.20;;;;;;;;;;4391362;32;20247;-86
2022/06/09 15:18:28;;;;;;;3.78;1.45;;;;;;;;;;4391019;32;20634;-86
2022/06/09 15:20:55;;;;;;;3.30;1.52;;;;;;;;;;4391042;32;20594;-84
2022/06/09 15:23:21;;;;;;;5.53;1.60;;;;;;;;;;4390576;32;20655;-85